createdAt,value
2022-11-18T00:01:07.480Z,11.90
2022-11-18T00:03:33.865Z,13.30
2022-11-18T00:06:00.269Z,12.13
2022-11-18T00:08:26.637Z,14.77
2022-11-18T00:10:53.056Z,12.25
2022-11-18T00:13:19.584Z,12.43
2022-11-18T00:15:46.022Z,15.50
2022-11-18T00:18:12.403Z,13.98
2022-11-18T00:20:38.810Z,12.25
2022-11-18T00:23:05.250Z,12.80
2022-11-18T00:25:33.833Z,13.57
2022-11-18T00:28:00.252Z,13.68
2022-11-18T00:30:26.633Z,11.85
2022-11-18T00:32:53.080Z,12.40
2022-11-18T00:35:19.618Z,13.32
2022-11-18T00:37:46.044Z,12.60
2022-11-18T00:40:12.605Z,13.52
2022-11-18T00:42:39.034Z,11.75
2022-11-18T00:45:05.935Z,12.00
2022-11-18T00:47:32.407Z,12.25
2022-11-18T00:49:58.802Z,11.20
2022-11-18T00:52:25.225Z,13.82
2022-11-18T00:54:51.602Z,14.50
2022-11-18T00:57:17.994Z,14.18
2022-11-18T00:59:44.397Z,15.27
2022-11-18T01:02:10.812Z,15.85
2022-11-18T01:04:37.213Z,14.55
2022-11-18T01:07:03.722Z,15.55
2022-11-18T01:09:30.234Z,14.20
2022-11-18T01:11:56.628Z,12.88
2022-11-18T01:14:27.175Z,15.82
2022-11-18T01:16:55.065Z,14.75
2022-11-18T01:19:21.465Z,14.60
2022-11-18T01:21:47.916Z,13.80
2022-11-18T01:24:14.516Z,15.05
2022-11-18T01:26:40.936Z,14.43
2022-11-18T01:29:07.379Z,15.00
2022-11-18T01:31:33.767Z,15.05
2022-11-18T01:34:00.186Z,14.07
2022-11-18T01:36:27.355Z,16.27
2022-11-18T01:38:54.274Z,13.85
2022-11-18T01:41:22.176Z,14.10
2022-11-18T01:44:02.737Z,14.45
2022-11-18T01:46:30.728Z,15.68
2022-11-18T01:49:01.443Z,15.27
2022-11-18T01:51:31.016Z,15.02
2022-11-18T01:53:59.752Z,16.52
2022-11-18T01:56:30.601Z,15.93
2022-11-18T01:58:58.696Z,16.05
2022-11-18T02:01:25.185Z,12.80
2022-11-18T02:03:51.630Z,18.75
2022-11-18T02:06:18.037Z,15.90
2022-11-18T02:08:44.429Z,17.92
2022-11-18T02:11:15.231Z,19.15
2022-11-18T02:13:41.617Z,17.88
2022-11-18T02:16:14.071Z,15.48
2022-11-18T02:18:52.644Z,16.55
2022-11-18T02:21:31.015Z,16.58
2022-11-18T02:24:19.167Z,20.52
2022-11-18T02:27:09.766Z,17.27
2022-11-18T02:29:41.962Z,19.40
2022-11-18T02:32:18.258Z,19.70
2022-11-18T02:34:59.309Z,19.30
2022-11-18T02:37:54.687Z,19.27
2022-11-18T02:40:57.977Z,19.90
2022-11-18T02:43:36.371Z,19.10
2022-11-18T02:46:06.433Z,18.05
2022-11-18T02:50:59.762Z,17.70
2022-11-18T02:53:26.177Z,18.75
2022-11-18T02:55:52.576Z,21.05
2022-11-18T02:58:20.029Z,18.50
2022-11-18T03:00:55.808Z,19.27
2022-11-18T03:03:32.775Z,19.48
2022-11-18T03:06:32.177Z,19.58
2022-11-18T03:09:14.170Z,20.55
2022-11-18T03:12:02.326Z,19.20
2022-11-18T03:14:32.624Z,17.42
2022-11-18T03:17:13.260Z,16.77
2022-11-18T03:20:05.614Z,18.35
2022-11-18T03:23:11.164Z,19.02
2022-11-18T03:28:23.864Z,18.60
2022-11-18T03:31:12.260Z,18.25
2022-11-18T03:33:50.367Z,17.33
2022-11-18T03:36:16.797Z,17.98
2022-11-18T03:38:46.084Z,18.40
2022-11-18T03:41:12.507Z,17.95
2022-11-18T03:43:41.440Z,20.50
2022-11-18T03:46:22.869Z,19.05
2022-11-18T03:48:54.232Z,21.73
2022-11-18T03:51:30.113Z,21.40
2022-11-18T03:54:12.100Z,17.92
2022-11-18T03:56:41.642Z,18.65
2022-11-18T03:59:39.010Z,17.98
2022-11-18T04:02:16.851Z,15.80
2022-11-18T04:04:44.301Z,19.45
2022-11-18T04:07:18.120Z,16.30
2022-11-18T04:09:58.953Z,14.70
2022-11-18T04:12:26.204Z,14.30
2022-11-18T04:14:53.588Z,15.68
2022-11-18T04:17:20.954Z,16.83
2022-11-18T04:19:47.428Z,15.32
2022-11-18T04:22:13.970Z,17.92
2022-11-18T04:24:40.454Z,19.65
2022-11-18T04:27:07.090Z,16.77
2022-11-18T04:29:33.664Z,14.63
2022-11-18T04:32:00.609Z,17.80
2022-11-18T04:34:27.018Z,17.33
2022-11-18T04:36:53.485Z,16.13
2022-11-18T04:39:20.431Z,16.25
2022-11-18T04:41:46.890Z,13.65
2022-11-18T04:44:13.558Z,16.35
2022-11-18T04:46:43.622Z,15.50
2022-11-18T04:49:10.737Z,14.95
2022-11-18T04:51:37.177Z,15.68
2022-11-18T04:54:03.781Z,17.35
2022-11-18T04:56:30.198Z,16.65
2022-11-18T04:58:58.115Z,16.38
2022-11-18T05:01:24.535Z,14.82
2022-11-18T05:03:51.053Z,14.98
2022-11-18T05:06:17.537Z,17.63
2022-11-18T05:08:43.927Z,15.93
2022-11-18T05:11:10.366Z,15.85
2022-11-18T05:13:36.756Z,15.43
2022-11-18T05:16:03.173Z,15.85
2022-11-18T05:18:29.572Z,18.60
2022-11-18T05:20:55.969Z,19.85
2022-11-18T05:23:22.344Z,18.20
2022-11-18T05:25:48.813Z,18.27
2022-11-18T05:28:15.213Z,20.60
2022-11-18T05:30:41.623Z,17.63
2022-11-18T05:33:08.025Z,19.88
2022-11-18T05:35:36.893Z,18.40
2022-11-18T05:38:03.713Z,20.17
2022-11-18T05:40:30.123Z,19.10
2022-11-18T05:42:56.510Z,17.55
2022-11-18T05:45:22.926Z,20.35
2022-11-18T05:47:49.392Z,19.52
2022-11-18T05:50:19.967Z,17.95
2022-11-18T05:52:47.697Z,18.90
2022-11-18T05:55:14.118Z,17.88
2022-11-18T05:57:40.547Z,18.98
2022-11-18T06:00:07.552Z,19.02
2022-11-18T06:02:34.105Z,23.92
2022-11-18T06:05:01.608Z,23.95
2022-11-18T06:07:46.265Z,21.63
2022-11-18T06:10:17.060Z,20.60
2022-11-18T06:12:45.078Z,20.15
2022-11-18T06:15:46.999Z,20.02
2022-11-18T06:18:31.522Z,18.98
2022-11-18T06:21:01.875Z,19.58
2022-11-18T06:23:29.186Z,19.45
2022-11-18T06:25:55.599Z,20.73
2022-11-18T06:28:22.050Z,20.42
2022-11-18T06:30:48.449Z,17.60
2022-11-18T06:33:14.932Z,19.38
2022-11-18T06:35:42.794Z,19.20
2022-11-18T06:38:09.231Z,19.20
2022-11-18T06:40:35.626Z,21.17
2022-11-18T06:43:08.296Z,21.48
2022-11-18T06:45:34.691Z,20.45
2022-11-18T06:48:01.120Z,23.70
2022-11-18T06:50:28.173Z,23.35
2022-11-18T06:52:54.586Z,19.48
2022-11-18T06:55:21.116Z,20.92
2022-11-18T06:57:47.522Z,22.40
2022-11-18T07:00:14.728Z,23.65
2022-11-18T07:02:41.141Z,20.00
2022-11-18T07:05:07.800Z,20.92
2022-11-18T07:07:41.712Z,20.42
2022-11-18T07:10:09.080Z,21.27
2022-11-18T07:12:35.536Z,21.00
2022-11-18T07:15:01.946Z,21.30
2022-11-18T07:17:30.338Z,22.60
2022-11-18T07:19:56.781Z,21.38
2022-11-18T07:22:23.192Z,19.15
2022-11-18T07:24:49.593Z,21.90
2022-11-18T07:27:16.073Z,23.30
2022-11-18T07:29:42.549Z,23.20
2022-11-18T07:32:08.972Z,20.80
2022-11-18T07:34:35.401Z,22.77
2022-11-18T07:37:01.849Z,20.65
2022-11-18T07:39:28.264Z,25.48
2022-11-18T07:41:54.683Z,20.67
2022-11-18T07:44:21.099Z,20.25
2022-11-18T07:46:47.487Z,20.23
2022-11-18T07:49:13.987Z,17.48
2022-11-18T07:51:40.437Z,18.17
2022-11-18T07:54:11.512Z,17.65
2022-11-18T07:56:37.949Z,21.40
2022-11-18T07:59:04.393Z,18.70
2022-11-18T08:01:32.095Z,17.75
2022-11-18T08:04:04.009Z,19.50
2022-11-18T08:06:31.853Z,26.85
2022-11-18T08:08:58.234Z,16.48
2022-11-18T08:11:24.703Z,20.13
2022-11-18T08:13:53.849Z,20.63
2022-11-18T08:16:21.708Z,20.88
2022-11-18T08:18:48.214Z,15.95
2022-11-18T08:21:14.939Z,19.85
2022-11-18T08:23:42.609Z,17.15
2022-11-18T08:26:11.412Z,18.35
2022-11-18T08:28:37.889Z,16.52
2022-11-18T08:31:18.165Z,16.20
2022-11-18T08:33:44.787Z,14.40
2022-11-18T08:36:16.896Z,15.98
2022-11-18T08:38:43.446Z,16.40
2022-11-18T08:41:33.373Z,14.88
2022-11-18T08:44:00.722Z,15.75
2022-11-18T08:46:27.940Z,14.75
2022-11-18T08:48:54.348Z,15.70
2022-11-18T08:51:20.795Z,16.73
2022-11-18T08:53:47.209Z,16.95
2022-11-18T08:56:16.067Z,14.75
2022-11-18T08:58:42.648Z,15.23
2022-11-18T09:01:09.399Z,15.38
2022-11-18T09:03:35.851Z,15.38
2022-11-18T09:06:09.988Z,16.40
2022-11-18T09:08:36.631Z,15.07
2022-11-18T09:11:29.059Z,16.23
2022-11-18T09:16:43.215Z,15.48
2022-11-18T09:19:32.077Z,12.70
2022-11-18T09:21:56.034Z,21.02
2022-11-18T09:24:22.452Z,13.95
2022-11-18T09:26:48.892Z,16.70
2022-11-18T09:29:15.318Z,17.75
2022-11-18T09:31:41.735Z,17.13
2022-11-18T09:34:08.158Z,14.48
2022-11-18T09:36:34.807Z,14.07
2022-11-18T09:39:01.246Z,13.70
2022-11-18T09:41:58.853Z,14.73
2022-11-18T09:44:44.865Z,15.80
2022-11-18T09:47:26.402Z,13.57
2022-11-18T09:49:57.223Z,13.15
2022-11-18T09:52:23.657Z,14.23
2022-11-18T09:54:50.079Z,15.27
2022-11-18T09:57:20.889Z,13.43
2022-11-18T09:59:47.776Z,12.30
2022-11-18T10:02:42.007Z,13.23
2022-11-18T10:05:29.771Z,10.80
2022-11-18T10:08:18.413Z,11.63
2022-11-18T10:11:03.532Z,12.55
2022-11-18T10:14:00.590Z,12.93
2022-11-18T10:16:36.378Z,11.52
2022-11-18T10:19:11.606Z,11.40
2022-11-18T10:22:11.289Z,12.52
2022-11-18T10:24:43.494Z,10.57
2022-11-18T10:27:13.708Z,12.20
2022-11-18T10:29:40.117Z,12.25
2022-11-18T10:32:16.712Z,13.77
2022-11-18T10:34:51.209Z,10.55
2022-11-18T10:38:00.133Z,10.57
2022-11-18T10:40:26.336Z,8.60
2022-11-18T10:42:52.794Z,7.93
2022-11-18T10:45:26.555Z,11.20
2022-11-18T10:48:14.573Z,10.13
2022-11-18T10:50:41.918Z,8.85
2022-11-18T10:53:43.882Z,10.80
2022-11-18T10:56:13.447Z,10.18
2022-11-18T10:58:44.323Z,10.32
2022-11-18T11:01:19.796Z,10.95
2022-11-18T11:04:16.648Z,9.75
2022-11-18T11:06:43.327Z,10.20
2022-11-18T11:09:29.876Z,8.82
2022-11-18T11:12:00.346Z,8.75
2022-11-18T11:14:32.837Z,6.93
2022-11-18T11:17:04.318Z,7.57
2022-11-18T11:19:56.231Z,8.27
2022-11-18T11:22:22.717Z,6.80
2022-11-18T11:24:49.101Z,7.45
2022-11-18T11:30:20.751Z,7.65
2022-11-18T11:33:23.149Z,7.00
2022-11-18T11:35:58.446Z,5.90
2022-11-18T11:38:46.451Z,7.53
2022-11-18T11:41:22.106Z,7.15
2022-11-18T11:43:52.757Z,7.63
2022-11-18T11:46:37.374Z,7.07
2022-11-18T11:49:16.983Z,6.90
2022-11-18T11:52:05.578Z,6.88
2022-11-18T11:54:40.951Z,8.05
2022-11-18T11:57:13.556Z,6.88
2022-11-18T12:00:13.841Z,7.70
2022-11-18T12:02:53.607Z,7.43
2022-11-18T12:05:24.163Z,6.45
2022-11-18T12:07:57.405Z,7.65
2022-11-18T12:10:31.345Z,10.13
2022-11-18T12:13:31.840Z,6.03
2022-11-18T12:16:13.412Z,8.32
2022-11-18T12:18:58.352Z,9.30
2022-11-18T12:21:46.498Z,7.80
2022-11-18T12:24:28.159Z,8.18
2022-11-18T12:26:54.577Z,6.72
2022-11-18T12:29:21.413Z,7.18
2022-11-18T12:31:52.235Z,6.78
2022-11-18T12:34:18.570Z,9.25
2022-11-18T12:36:44.968Z,8.02
2022-11-18T12:39:23.682Z,10.00
2022-11-18T12:42:09.596Z,9.48
2022-11-18T12:44:36.130Z,9.43
2022-11-18T12:47:03.487Z,7.97
2022-11-18T12:49:29.783Z,8.95
2022-11-18T12:51:59.833Z,7.78
2022-11-18T12:56:57.636Z,7.35
2022-11-18T12:59:34.584Z,9.48
2022-11-18T13:02:05.003Z,5.70
2022-11-18T13:04:31.449Z,11.70
2022-11-18T13:06:57.951Z,8.13
2022-11-18T13:09:24.866Z,5.63
2022-11-18T13:11:56.879Z,7.28
2022-11-18T13:14:55.388Z,7.85
2022-11-18T13:17:35.173Z,8.32
2022-11-18T13:20:01.622Z,5.22
2022-11-18T13:22:28.218Z,8.65
2022-11-18T13:24:54.669Z,6.45
2022-11-18T13:27:33.089Z,4.28
2022-11-18T13:30:05.942Z,5.97
2022-11-18T13:32:32.352Z,10.82
2022-11-18T13:35:05.053Z,8.38
2022-11-18T13:37:32.044Z,7.28
2022-11-18T13:39:58.471Z,4.88
2022-11-18T13:42:31.224Z,6.43
2022-11-18T13:44:59.281Z,5.35
2022-11-18T13:47:40.769Z,4.90
2022-11-18T13:50:24.726Z,5.07
2022-11-18T13:53:06.708Z,5.45
2022-11-18T13:55:51.704Z,4.25
2022-11-18T13:58:17.996Z,3.85
2022-11-18T14:00:44.567Z,4.15
2022-11-18T14:03:35.486Z,4.53
2022-11-18T14:06:02.066Z,3.55
2022-11-18T14:08:38.637Z,4.70
2022-11-18T14:11:05.974Z,4.10
2022-11-18T14:13:51.826Z,4.68
2022-11-18T14:16:21.116Z,2.72
2022-11-18T14:18:48.573Z,5.30
2022-11-18T14:21:15.114Z,4.38
2022-11-18T14:23:42.554Z,3.65
2022-11-18T14:26:09.070Z,4.93
2022-11-18T14:28:36.513Z,3.30
2022-11-18T14:31:21.742Z,8.80
2022-11-18T14:34:12.489Z,3.30
2022-11-18T14:36:41.022Z,4.47
2022-11-18T14:39:29.036Z,6.50
2022-11-18T14:41:55.795Z,2.45
2022-11-18T14:44:23.035Z,4.13
2022-11-18T14:46:51.283Z,4.43
2022-11-18T14:49:19.113Z,3.30
2022-11-18T14:51:45.956Z,3.22
2022-11-18T14:54:13.730Z,3.72
2022-11-18T14:56:42.203Z,3.45
2022-11-18T14:59:15.764Z,3.00
2022-11-18T15:01:42.549Z,2.88
2022-11-18T15:04:09.086Z,3.03
2022-11-18T15:06:35.578Z,3.88
2022-11-18T15:09:02.116Z,3.42
2022-11-18T15:11:28.515Z,4.47
2022-11-18T15:13:54.971Z,3.65
2022-11-18T15:16:26.222Z,2.63
2022-11-18T15:18:54.249Z,4.15
2022-11-18T15:21:20.917Z,3.42
2022-11-18T15:23:47.358Z,3.78
2022-11-18T15:26:21.939Z,3.03
2022-11-18T15:28:48.774Z,4.20
2022-11-18T15:31:15.482Z,3.20
2022-11-18T15:33:41.987Z,4.68
2022-11-18T15:36:26.697Z,7.68
2022-11-18T15:38:53.786Z,4.32
2022-11-18T15:41:25.146Z,4.30
2022-11-18T15:43:51.783Z,3.97
2022-11-18T15:46:18.831Z,5.15
2022-11-18T15:48:45.364Z,3.60
2022-11-18T15:51:12.513Z,4.95
2022-11-18T15:53:39.407Z,6.03
2022-11-18T15:56:21.135Z,4.57
2022-11-18T15:59:07.168Z,3.30
2022-11-18T16:01:38.242Z,4.20
2022-11-18T16:04:05.676Z,6.82
2022-11-18T16:06:32.353Z,4.15
2022-11-18T16:09:00.267Z,5.40
2022-11-18T16:11:27.822Z,4.15
2022-11-18T16:13:54.396Z,6.32
2022-11-18T16:16:21.581Z,3.60
2022-11-18T16:18:48.062Z,5.93
2022-11-18T16:21:14.703Z,5.50
2022-11-18T16:23:41.115Z,6.45
2022-11-18T16:26:07.783Z,7.13
2022-11-18T16:28:37.209Z,6.72
2022-11-18T16:31:04.435Z,4.28
2022-11-18T16:33:30.963Z,5.80
2022-11-18T16:35:57.652Z,5.57
2022-11-18T16:38:24.197Z,5.57
2022-11-18T16:40:57.070Z,6.15
2022-11-18T16:43:24.076Z,8.02
2022-11-18T16:45:54.055Z,9.25
2022-11-18T16:48:21.209Z,4.65
2022-11-18T16:51:20.496Z,6.47
2022-11-18T16:53:55.602Z,3.80
2022-11-18T16:56:28.113Z,4.80
2022-11-18T16:59:06.965Z,4.40
2022-11-18T17:01:33.568Z,4.97
2022-11-18T17:04:00.192Z,3.67
2022-11-18T17:06:26.748Z,3.80
2022-11-18T17:08:53.229Z,2.17
2022-11-18T17:11:19.779Z,9.65
2022-11-18T17:13:46.282Z,4.00
2022-11-18T17:16:17.074Z,3.08
2022-11-18T17:18:43.554Z,4.50
2022-11-18T17:21:11.340Z,3.30
2022-11-18T17:23:37.885Z,3.20
2022-11-18T17:26:04.533Z,3.80
2022-11-18T17:28:31.859Z,4.72
2022-11-18T17:30:58.371Z,3.30
2022-11-18T17:33:24.754Z,3.83
2022-11-18T17:36:00.690Z,6.35
2022-11-18T17:38:27.686Z,6.18
2022-11-18T17:40:57.149Z,5.68
2022-11-18T17:43:24.069Z,3.75
2022-11-18T17:45:51.641Z,3.35
2022-11-18T17:48:18.885Z,3.00
2022-11-18T17:50:45.494Z,4.78
2022-11-18T17:53:11.948Z,3.28
2022-11-18T17:55:38.371Z,2.97
2022-11-18T17:58:05.056Z,3.42
2022-11-18T18:00:31.476Z,2.15
2022-11-18T18:02:58.626Z,4.07
2022-11-18T18:05:25.121Z,4.78
2022-11-18T18:07:51.542Z,4.35
2022-11-18T18:10:18.401Z,2.30
2022-11-18T18:12:44.872Z,4.90
2022-11-18T18:15:11.259Z,4.63
2022-11-18T18:17:37.726Z,3.42
2022-11-18T18:20:04.335Z,3.80
2022-11-18T18:22:30.805Z,3.80
2022-11-18T18:24:57.201Z,4.30
2022-11-18T18:27:23.662Z,3.70
2022-11-18T18:29:50.065Z,7.47
2022-11-18T18:32:16.489Z,6.05
2022-11-18T18:34:42.880Z,4.68
2022-11-18T18:37:09.296Z,3.55
2022-11-18T18:39:35.681Z,8.85
2022-11-18T18:42:02.120Z,6.20
2022-11-18T18:44:28.505Z,10.13
2022-11-18T18:46:54.891Z,18.70
2022-11-18T18:49:21.287Z,23.15
2022-11-18T18:51:47.790Z,10.25
2022-11-18T18:54:16.809Z,8.63
2022-11-18T18:56:44.025Z,7.35
2022-11-18T18:59:10.539Z,6.40
2022-11-18T19:01:37.125Z,4.90
2022-11-18T19:04:05.502Z,5.38
2022-11-18T19:06:59.393Z,3.20
2022-11-18T19:09:25.198Z,4.13
2022-11-18T19:11:52.441Z,3.22
2022-11-18T19:14:19.518Z,6.32
2022-11-18T19:16:46.418Z,4.03
2022-11-18T19:19:13.959Z,5.30
2022-11-18T19:21:40.359Z,5.07
2022-11-18T19:29:25.509Z,3.58
2022-11-18T19:31:52.450Z,4.88
2022-11-18T19:34:19.154Z,6.68
2022-11-18T19:36:47.916Z,13.50
2022-11-18T19:39:14.302Z,10.35
2022-11-18T19:41:40.714Z,4.75
2022-11-18T19:44:07.558Z,4.07
2022-11-18T19:46:36.552Z,3.88
2022-11-18T19:49:04.378Z,3.40
2022-11-18T19:51:30.840Z,4.35
2022-11-18T19:53:59.873Z,4.13
2022-11-18T19:56:26.477Z,3.08
2022-11-18T19:58:52.976Z,3.78
2022-11-18T20:01:24.080Z,3.42
2022-11-18T20:03:52.177Z,3.70
2022-11-18T20:06:23.828Z,3.72
2022-11-18T20:08:50.355Z,3.53
2022-11-18T20:11:17.872Z,3.55
2022-11-18T20:13:44.524Z,8.85
2022-11-18T20:16:12.827Z,4.45
2022-11-18T20:18:39.234Z,4.38
2022-11-18T20:21:13.502Z,3.90
2022-11-18T20:23:39.922Z,5.68
2022-11-18T20:26:11.117Z,3.90
2022-11-18T20:28:38.680Z,4.32
2022-11-18T20:31:05.820Z,4.80
2022-11-18T20:33:36.067Z,4.35
2022-11-18T20:36:06.451Z,7.53
2022-11-18T20:38:32.922Z,5.60
2022-11-18T20:41:03.566Z,8.32
2022-11-18T20:43:29.993Z,4.63
2022-11-18T20:45:56.390Z,3.42
2022-11-18T20:48:22.872Z,4.80
2022-11-18T20:50:49.327Z,9.80
2022-11-18T20:53:16.132Z,10.00
2022-11-18T20:55:42.880Z,8.93
2022-11-18T20:58:09.338Z,4.88
2022-11-18T21:00:35.779Z,7.07
2022-11-18T21:03:02.273Z,4.28
2022-11-18T21:05:28.666Z,4.45
2022-11-18T21:07:55.088Z,4.55
2022-11-18T21:10:21.528Z,3.17
2022-11-18T21:12:49.420Z,4.90
2022-11-18T21:15:15.959Z,3.80
2022-11-18T21:17:43.528Z,7.85
2022-11-18T21:20:10.199Z,5.60
2022-11-18T21:22:36.741Z,3.90
2022-11-18T21:25:03.430Z,7.13
2022-11-18T21:27:29.831Z,5.90
2022-11-18T21:29:56.242Z,6.13
2022-11-18T21:32:22.638Z,6.10
2022-11-18T21:34:49.072Z,6.57
2022-11-18T21:37:18.156Z,7.57
2022-11-18T21:39:48.087Z,7.22
2022-11-18T21:42:14.487Z,10.43
2022-11-18T21:44:41.067Z,8.68
2022-11-18T21:47:09.895Z,12.35
2022-11-18T21:49:36.310Z,14.27
2022-11-18T21:52:02.910Z,14.65
2022-11-18T21:54:29.416Z,9.57
2022-11-18T21:56:55.850Z,9.82
2022-11-18T21:59:23.474Z,10.82
2022-11-18T22:01:49.886Z,11.38
2022-11-18T22:04:16.295Z,11.27
2022-11-18T22:06:43.882Z,12.90
2022-11-18T22:09:10.275Z,13.13
2022-11-18T22:11:36.733Z,14.32
2022-11-18T22:14:05.487Z,11.32
2022-11-18T22:16:31.942Z,13.00
2022-11-18T22:19:03.568Z,14.02
2022-11-18T22:21:36.053Z,11.35
2022-11-18T22:24:02.467Z,13.98
2022-11-18T22:26:28.931Z,17.33
2022-11-18T22:28:56.433Z,20.17
2022-11-18T22:31:23.398Z,11.93
2022-11-18T22:33:50.074Z,10.52
2022-11-18T22:36:19.416Z,11.52
2022-11-18T22:38:46.071Z,10.10
2022-11-18T22:41:22.944Z,11.98
2022-11-18T22:43:49.362Z,11.38
2022-11-18T22:46:15.791Z,10.90
2022-11-18T22:48:42.193Z,11.93
2022-11-18T22:51:08.777Z,13.07
2022-11-18T22:53:35.175Z,12.98
2022-11-18T22:56:08.865Z,16.33
2022-11-18T22:58:35.293Z,14.63
2022-11-18T23:01:02.564Z,14.68
2022-11-18T23:03:29.260Z,13.52
2022-11-18T23:05:55.753Z,12.57
2022-11-18T23:08:22.924Z,14.65
2022-11-18T23:10:49.545Z,11.05
2022-11-18T23:13:16.331Z,16.33
2022-11-18T23:15:42.975Z,19.08
2022-11-18T23:18:11.723Z,25.63
2022-11-18T23:20:38.928Z,22.15
2022-11-18T23:23:05.509Z,18.60
2022-11-18T23:25:31.966Z,17.58
2022-11-18T23:27:58.401Z,16.52
2022-11-18T23:30:24.787Z,22.98
2022-11-18T23:32:52.846Z,22.50
2022-11-18T23:35:19.253Z,23.33
2022-11-18T23:37:45.692Z,25.35
2022-11-18T23:40:12.472Z,28.50
2022-11-18T23:42:38.955Z,29.10
2022-11-18T23:45:05.748Z,28.92
2022-11-18T23:47:32.198Z,27.67
2022-11-18T23:49:58.580Z,25.48
2022-11-18T23:52:25.021Z,18.73
2022-11-18T23:54:51.402Z,18.05
2022-11-18T23:57:17.859Z,14.77
2022-11-18T23:59:44.271Z,12.80
